createdAt,value
2023-02-19T00:01:26.339Z,46.90
2023-02-19T00:03:59.728Z,46.90
2023-02-19T00:06:28.502Z,47.10
2023-02-19T00:08:56.019Z,47.20
2023-02-19T00:11:25.371Z,47.40
2023-02-19T00:13:53.696Z,47.50
2023-02-19T00:16:23.567Z,47.80
2023-02-19T00:18:50.643Z,47.50
2023-02-19T00:21:17.742Z,47.60
2023-02-19T00:23:48.674Z,47.90
2023-02-19T00:26:18.468Z,47.70
2023-02-19T00:28:46.895Z,48.70
2023-02-19T00:31:19.305Z,47.90
2023-02-19T00:33:47.667Z,48.20
2023-02-19T00:36:15.087Z,48.50
2023-02-19T00:38:43.575Z,48.40
2023-02-19T00:41:20.425Z,48.50
2023-02-19T00:43:49.198Z,48.60
2023-02-19T00:46:17.865Z,48.50
2023-02-19T00:48:44.750Z,48.40
2023-02-19T00:51:12.400Z,48.60
2023-02-19T00:53:39.509Z,48.60
2023-02-19T00:56:07.247Z,48.80
2023-02-19T00:58:34.212Z,48.80
2023-02-19T01:01:01.170Z,49.00
2023-02-19T01:03:27.973Z,49.70
2023-02-19T01:05:54.946Z,49.10
2023-02-19T01:08:22.093Z,48.90
2023-02-19T01:10:49.144Z,49.10
2023-02-19T01:13:16.532Z,49.20
2023-02-19T01:15:43.732Z,49.20
2023-02-19T01:18:11.343Z,49.20
2023-02-19T01:20:43.140Z,49.30
2023-02-19T01:23:12.106Z,49.20
2023-02-19T01:25:40.504Z,49.10
2023-02-19T01:28:08.169Z,49.00
2023-02-19T01:30:37.098Z,48.90
2023-02-19T01:33:08.147Z,49.20
2023-02-19T01:35:38.428Z,49.20
2023-02-19T01:38:07.451Z,49.00
2023-02-19T01:40:34.858Z,48.80
2023-02-19T01:43:03.644Z,49.20
2023-02-19T01:45:32.706Z,49.00
2023-02-19T01:48:17.541Z,49.00
2023-02-19T01:50:49.612Z,48.90
2023-02-19T01:53:21.250Z,48.70
2023-02-19T01:55:52.537Z,48.70
2023-02-19T01:58:19.674Z,49.00
2023-02-19T02:00:46.508Z,49.20
2023-02-19T02:03:13.599Z,49.20
2023-02-19T02:05:44.573Z,49.20
2023-02-19T02:08:32.921Z,49.30
2023-02-19T02:10:59.964Z,49.00
2023-02-19T02:13:27.165Z,49.30
2023-02-19T02:16:27.686Z,49.20
2023-02-19T02:19:01.293Z,49.60
2023-02-19T02:21:56.082Z,50.30
2023-02-19T02:24:35.767Z,51.00
2023-02-19T02:27:31.009Z,50.90
2023-02-19T02:30:26.927Z,50.90
2023-02-19T02:33:05.673Z,50.80
2023-02-19T02:35:45.870Z,51.20
2023-02-19T02:38:14.913Z,53.40
2023-02-19T02:40:44.970Z,54.40
2023-02-19T02:43:13.003Z,55.20
2023-02-19T02:45:40.395Z,55.60
2023-02-19T02:48:29.957Z,56.20
2023-02-19T02:51:06.618Z,55.50
2023-02-19T02:54:06.720Z,56.00
2023-02-19T02:56:35.003Z,56.20
2023-02-19T02:59:04.032Z,57.00
2023-02-19T03:02:02.557Z,58.40
2023-02-19T03:05:01.316Z,59.70
2023-02-19T03:07:34.198Z,60.90
2023-02-19T03:10:04.572Z,63.40
2023-02-19T03:12:51.306Z,65.10
2023-02-19T03:15:38.320Z,67.20
2023-02-19T03:18:26.451Z,68.30
2023-02-19T03:20:57.800Z,69.30
2023-02-19T03:23:47.877Z,69.60
2023-02-19T03:26:16.561Z,70.20
2023-02-19T03:29:06.235Z,72.30
2023-02-19T03:31:33.856Z,72.80
2023-02-19T03:34:05.337Z,72.80
2023-02-19T03:36:43.060Z,73.00
2023-02-19T03:39:14.664Z,73.50
2023-02-19T03:41:55.622Z,73.90
2023-02-19T03:44:53.566Z,74.40
2023-02-19T03:47:29.005Z,73.20
2023-02-19T03:50:07.927Z,72.90
2023-02-19T03:53:02.432Z,72.60
2023-02-19T03:55:29.274Z,73.30
2023-02-19T03:58:08.244Z,73.30
2023-02-19T04:00:58.394Z,73.50
2023-02-19T04:03:31.496Z,73.40
2023-02-19T04:06:04.343Z,73.20
2023-02-19T04:08:34.207Z,73.10
2023-02-19T04:11:01.731Z,72.80
2023-02-19T04:13:35.274Z,72.70
2023-02-19T04:16:07.853Z,72.90
2023-02-19T04:18:38.586Z,72.60
2023-02-19T04:21:07.509Z,72.00
2023-02-19T04:23:40.021Z,71.70
2023-02-19T04:26:08.091Z,71.70
2023-02-19T04:28:35.845Z,71.80
2023-02-19T04:31:02.720Z,71.40
2023-02-19T04:33:29.529Z,71.40
2023-02-19T04:35:56.372Z,71.40
2023-02-19T04:38:23.150Z,72.40
2023-02-19T04:40:51.496Z,72.50
2023-02-19T04:43:18.655Z,72.30
2023-02-19T04:45:45.419Z,72.30
2023-02-19T04:48:12.259Z,72.20
2023-02-19T04:50:40.013Z,71.60
2023-02-19T04:53:07.503Z,70.90
2023-02-19T04:55:38.911Z,70.50
2023-02-19T04:58:05.913Z,70.10
2023-02-19T05:00:34.016Z,69.60
2023-02-19T05:03:01.199Z,69.20
2023-02-19T05:05:28.245Z,69.60
2023-02-19T05:07:54.994Z,69.00
2023-02-19T05:10:21.792Z,68.80
2023-02-19T05:12:48.561Z,68.30
2023-02-19T05:15:15.422Z,68.00
2023-02-19T05:17:42.161Z,67.70
2023-02-19T05:20:09.373Z,67.90
2023-02-19T05:22:36.127Z,67.80
2023-02-19T05:25:02.985Z,67.20
2023-02-19T05:27:31.135Z,66.90
2023-02-19T05:29:57.858Z,67.50
2023-02-19T05:32:24.716Z,68.00
2023-02-19T05:34:51.652Z,68.00
2023-02-19T05:37:18.404Z,68.00
2023-02-19T05:39:45.207Z,67.60
2023-02-19T05:42:14.286Z,67.10
2023-02-19T05:44:41.905Z,67.30
2023-02-19T05:47:08.658Z,67.40
2023-02-19T05:49:35.400Z,67.20
2023-02-19T05:52:02.438Z,67.70
2023-02-19T05:54:29.898Z,68.10
2023-02-19T05:56:56.776Z,67.50
2023-02-19T05:59:25.764Z,67.60
2023-02-19T06:01:54.308Z,67.00
2023-02-19T06:04:21.253Z,66.90
2023-02-19T06:06:48.810Z,66.80
2023-02-19T06:09:15.566Z,67.10
2023-02-19T06:11:43.585Z,66.90
2023-02-19T06:14:13.060Z,67.10
2023-02-19T06:16:39.979Z,67.70
2023-02-19T06:19:06.822Z,68.60
2023-02-19T06:21:33.588Z,68.20
2023-02-19T06:24:05.244Z,68.60
2023-02-19T06:26:31.981Z,69.00
2023-02-19T06:28:58.658Z,69.10
2023-02-19T06:31:26.021Z,70.00
2023-02-19T06:33:52.925Z,70.50
2023-02-19T06:36:21.082Z,70.90
2023-02-19T06:38:48.451Z,71.40
2023-02-19T06:41:15.489Z,72.00
2023-02-19T06:43:42.823Z,73.50
2023-02-19T06:46:11.775Z,75.20
2023-02-19T06:48:39.968Z,76.70
2023-02-19T06:51:07.060Z,76.90
2023-02-19T06:53:33.898Z,79.30
2023-02-19T06:56:06.726Z,80.90
2023-02-19T06:58:34.700Z,82.70
2023-02-19T07:01:01.671Z,83.80
2023-02-19T07:03:28.655Z,84.90
2023-02-19T07:05:55.527Z,86.20
2023-02-19T07:08:22.443Z,87.30
2023-02-19T07:10:59.204Z,89.30
2023-02-19T07:13:27.117Z,90.50
2023-02-19T07:16:01.786Z,91.40
2023-02-19T07:18:30.269Z,91.60
2023-02-19T07:21:06.922Z,91.70
2023-02-19T07:23:34.197Z,91.90
2023-02-19T07:26:01.026Z,92.20
2023-02-19T07:28:27.903Z,92.10
2023-02-19T07:30:59.712Z,92.20
2023-02-19T07:33:26.596Z,92.40
2023-02-19T07:35:53.340Z,92.50
2023-02-19T07:38:21.585Z,92.40
2023-02-19T07:40:52.985Z,92.90
2023-02-19T07:43:19.929Z,91.80
2023-02-19T07:45:46.796Z,91.70
2023-02-19T07:48:14.118Z,91.70
2023-02-19T07:50:40.973Z,91.30
2023-02-19T07:53:08.020Z,91.20
2023-02-19T07:55:35.041Z,91.30
2023-02-19T07:58:01.848Z,91.40
2023-02-19T08:00:28.611Z,91.30
2023-02-19T08:03:01.292Z,91.10
2023-02-19T08:05:29.311Z,90.10
2023-02-19T08:07:56.292Z,88.20
2023-02-19T08:10:41.980Z,87.20
2023-02-19T08:13:25.625Z,86.20
2023-02-19T08:16:17.330Z,85.30
2023-02-19T08:18:48.181Z,85.10
2023-02-19T08:21:18.110Z,82.00
2023-02-19T08:23:46.279Z,82.30
2023-02-19T08:26:13.378Z,80.40
2023-02-19T08:28:40.201Z,81.10
2023-02-19T08:31:08.748Z,81.80
2023-02-19T08:33:35.790Z,81.60
2023-02-19T08:36:07.145Z,81.10
2023-02-19T08:38:36.637Z,79.70
2023-02-19T08:41:06.851Z,77.10
2023-02-19T08:43:34.153Z,77.70
2023-02-19T08:46:00.973Z,75.60
2023-02-19T08:48:28.058Z,72.60
2023-02-19T08:51:03.823Z,69.80
2023-02-19T08:53:32.448Z,69.00
2023-02-19T08:55:59.332Z,69.00
2023-02-19T08:58:26.363Z,68.20
2023-02-19T09:00:53.362Z,67.80
2023-02-19T09:03:20.125Z,66.50
2023-02-19T09:05:46.920Z,64.80
2023-02-19T09:08:13.721Z,63.10
2023-02-19T09:10:40.457Z,62.70
2023-02-19T09:13:07.433Z,62.90
2023-02-19T09:15:34.211Z,64.00
2023-02-19T09:18:01.049Z,63.20
2023-02-19T09:20:27.752Z,63.20
2023-02-19T09:22:58.709Z,61.00
2023-02-19T09:25:26.137Z,60.40
2023-02-19T09:27:56.864Z,60.40
2023-02-19T09:30:24.011Z,60.00
2023-02-19T09:32:50.901Z,57.70
2023-02-19T09:35:17.910Z,55.90
2023-02-19T09:37:45.279Z,55.20
2023-02-19T09:40:14.361Z,52.10
2023-02-19T09:42:43.356Z,50.10
2023-02-19T09:45:17.502Z,50.40
2023-02-19T09:47:44.414Z,47.90
2023-02-19T09:50:16.525Z,47.60
2023-02-19T09:53:05.887Z,46.20
2023-02-19T09:55:45.055Z,46.90
2023-02-19T09:58:30.024Z,46.00
2023-02-19T10:01:00.141Z,45.80
2023-02-19T10:03:34.291Z,45.50
2023-02-19T10:06:06.222Z,46.10
2023-02-19T10:08:35.757Z,46.50
2023-02-19T10:11:04.713Z,46.70
2023-02-19T10:13:55.743Z,47.00
2023-02-19T10:16:28.161Z,45.80
2023-02-19T10:18:54.967Z,46.20
2023-02-19T10:21:28.697Z,45.60
2023-02-19T10:23:59.686Z,45.40
2023-02-19T10:26:27.501Z,45.60
2023-02-19T10:28:55.478Z,45.50
2023-02-19T10:31:24.658Z,45.80
2023-02-19T10:33:57.381Z,45.80
2023-02-19T10:36:31.313Z,45.40
2023-02-19T10:39:00.660Z,45.60
2023-02-19T10:41:28.888Z,45.80
2023-02-19T10:44:07.945Z,44.20
2023-02-19T10:46:40.794Z,43.30
2023-02-19T10:49:38.507Z,43.90
2023-02-19T10:52:34.386Z,43.90
2023-02-19T10:55:38.150Z,42.20
2023-02-19T10:58:28.586Z,43.50
2023-02-19T11:01:19.617Z,43.80
2023-02-19T11:03:48.307Z,43.80
2023-02-19T11:06:17.430Z,43.40
2023-02-19T11:08:54.112Z,44.40
2023-02-19T11:11:34.840Z,45.30
2023-02-19T11:14:18.416Z,45.10
2023-02-19T11:16:56.926Z,44.80
2023-02-19T11:19:45.435Z,45.10
2023-02-19T11:22:40.013Z,44.40
2023-02-19T11:25:12.616Z,43.40
2023-02-19T11:27:54.012Z,42.60
2023-02-19T11:30:41.731Z,42.10
2023-02-19T11:33:17.454Z,41.60
2023-02-19T11:35:44.948Z,41.20
2023-02-19T11:38:13.981Z,41.00
2023-02-19T11:40:50.238Z,40.80
2023-02-19T11:43:38.352Z,43.00
2023-02-19T11:46:30.531Z,42.80
2023-02-19T11:49:05.720Z,44.50
2023-02-19T11:52:07.567Z,46.90
2023-02-19T11:55:00.773Z,47.80
2023-02-19T11:57:41.468Z,48.30
2023-02-19T12:00:23.281Z,48.00
2023-02-19T12:03:28.955Z,48.20
2023-02-19T12:06:20.554Z,48.30
2023-02-19T12:09:11.314Z,46.30
2023-02-19T12:12:14.162Z,45.70
2023-02-19T12:14:58.703Z,44.00
2023-02-19T12:17:57.065Z,44.30
2023-02-19T12:20:51.807Z,44.90
2023-02-19T12:24:00.467Z,45.40
2023-02-19T12:27:00.997Z,45.60
2023-02-19T12:30:10.896Z,44.40
2023-02-19T12:33:04.012Z,45.00
2023-02-19T12:35:30.709Z,44.80
2023-02-19T12:38:09.219Z,45.00
2023-02-19T12:41:06.061Z,44.60
2023-02-19T12:43:34.435Z,44.10
2023-02-19T12:46:11.660Z,44.00
2023-02-19T12:48:55.710Z,44.00
2023-02-19T12:51:50.009Z,44.00
2023-02-19T12:54:40.977Z,44.10
2023-02-19T12:57:38.221Z,43.40
2023-02-19T13:00:31.925Z,43.90
2023-02-19T13:03:22.529Z,43.00
2023-02-19T13:06:21.514Z,42.30
2023-02-19T13:09:07.103Z,42.60
2023-02-19T13:11:46.859Z,42.60
2023-02-19T13:14:24.051Z,42.50
2023-02-19T13:17:01.388Z,42.20
2023-02-19T13:19:30.513Z,42.00
2023-02-19T13:22:38.254Z,42.00
2023-02-19T13:25:07.627Z,42.30
2023-02-19T13:28:05.101Z,42.50
2023-02-19T13:31:04.353Z,41.60
2023-02-19T13:33:43.258Z,41.50
2023-02-19T13:36:15.372Z,41.20
2023-02-19T13:38:48.056Z,41.00
2023-02-19T13:41:42.327Z,40.90
2023-02-19T13:44:19.246Z,41.20
2023-02-19T13:46:47.727Z,40.30
2023-02-19T13:49:23.699Z,39.00
2023-02-19T13:51:52.799Z,38.30
2023-02-19T13:54:31.559Z,38.20
2023-02-19T13:57:26.878Z,38.50
2023-02-19T13:59:56.092Z,37.80
2023-02-19T14:02:35.381Z,38.40
2023-02-19T14:05:09.996Z,38.50
2023-02-19T14:07:48.969Z,38.10
2023-02-19T14:10:57.614Z,36.50
2023-02-19T14:13:52.371Z,34.40
2023-02-19T14:16:37.959Z,34.10
2023-02-19T14:19:14.015Z,33.50
2023-02-19T14:21:43.838Z,34.00
2023-02-19T14:24:14.264Z,33.30
2023-02-19T14:26:41.710Z,33.50
2023-02-19T14:29:12.037Z,33.80
2023-02-19T14:31:39.662Z,33.20
2023-02-19T14:34:22.951Z,33.60
2023-02-19T14:37:01.407Z,33.80
2023-02-19T14:39:35.114Z,33.50
2023-02-19T14:42:33.533Z,33.30
2023-02-19T14:45:06.179Z,33.00
2023-02-19T14:47:35.096Z,33.20
2023-02-19T14:50:03.966Z,33.80
2023-02-19T14:52:37.731Z,33.80
2023-02-19T14:55:09.424Z,34.30
2023-02-19T14:57:40.276Z,34.40
2023-02-19T15:00:29.594Z,34.60
2023-02-19T15:02:57.767Z,34.80
2023-02-19T15:05:35.365Z,35.20
2023-02-19T15:08:08.921Z,35.60
2023-02-19T15:10:39.168Z,36.00
2023-02-19T15:13:08.658Z,36.30
2023-02-19T15:15:43.327Z,36.50
2023-02-19T15:18:23.930Z,36.60
2023-02-19T15:20:58.354Z,36.70
2023-02-19T15:23:26.431Z,37.50
2023-02-19T15:25:53.631Z,37.70
2023-02-19T15:28:26.368Z,38.10
2023-02-19T15:30:59.061Z,38.10
2023-02-19T15:33:27.537Z,38.30
2023-02-19T15:35:57.844Z,38.60
2023-02-19T15:38:25.534Z,39.10
2023-02-19T15:40:53.163Z,39.30
2023-02-19T15:43:30.000Z,39.30
2023-02-19T15:46:09.381Z,39.40
2023-02-19T15:48:46.006Z,40.00
2023-02-19T15:51:21.286Z,40.30
2023-02-19T15:53:54.380Z,40.80
2023-02-19T15:56:29.414Z,41.00
2023-02-19T15:59:21.418Z,41.30
2023-02-19T16:01:48.662Z,41.70
2023-02-19T16:04:17.685Z,42.00
2023-02-19T16:06:57.957Z,42.50
2023-02-19T16:09:34.842Z,43.00
2023-02-19T16:12:03.650Z,43.40
2023-02-19T16:14:37.111Z,43.70
2023-02-19T16:17:14.742Z,44.10
2023-02-19T16:19:59.806Z,44.30
2023-02-19T16:22:33.589Z,44.30
2023-02-19T16:25:06.410Z,44.70
2023-02-19T16:27:43.047Z,44.60
2023-02-19T16:30:25.487Z,44.90
2023-02-19T16:33:31.914Z,45.40
2023-02-19T16:35:58.967Z,45.70
2023-02-19T16:38:25.805Z,45.80
2023-02-19T16:40:53.252Z,46.10
2023-02-19T16:43:40.176Z,46.60
2023-02-19T16:46:10.818Z,47.00
2023-02-19T16:48:37.992Z,47.50
2023-02-19T16:51:09.017Z,47.80
2023-02-19T16:53:35.941Z,48.10
2023-02-19T16:56:02.805Z,48.10
2023-02-19T16:58:29.666Z,48.10
2023-02-19T17:00:58.736Z,48.50
2023-02-19T17:03:26.104Z,48.70
2023-02-19T17:05:53.441Z,49.10
2023-02-19T17:08:23.284Z,48.90
2023-02-19T17:10:50.065Z,49.10
2023-02-19T17:13:16.937Z,49.40
2023-02-19T17:15:43.730Z,49.40
2023-02-19T17:18:12.639Z,49.30
2023-02-19T17:20:40.626Z,49.20
2023-02-19T17:23:07.428Z,49.10
2023-02-19T17:25:34.155Z,49.30
2023-02-19T17:28:00.963Z,49.80
2023-02-19T17:30:31.731Z,49.80
2023-02-19T17:32:58.647Z,49.90
2023-02-19T17:35:25.826Z,49.60
2023-02-19T17:37:53.540Z,49.90
2023-02-19T17:40:33.863Z,50.10
2023-02-19T17:43:01.271Z,50.40
2023-02-19T17:45:28.047Z,49.70
2023-02-19T17:47:54.882Z,49.80
2023-02-19T17:50:25.494Z,49.60
2023-02-19T17:52:52.615Z,49.70
2023-02-19T17:55:19.579Z,49.30
2023-02-19T17:57:47.844Z,49.20
2023-02-19T18:00:17.050Z,49.20
2023-02-19T18:02:43.865Z,49.40
2023-02-19T18:05:10.882Z,49.80
2023-02-19T18:07:38.512Z,49.30
2023-02-19T18:10:06.808Z,49.80
2023-02-19T18:12:33.942Z,49.30
2023-02-19T18:15:00.783Z,49.10
2023-02-19T18:17:27.600Z,48.60
2023-02-19T18:19:54.429Z,48.30
2023-02-19T18:22:21.214Z,47.80
2023-02-19T18:24:50.343Z,47.50
2023-02-19T18:27:18.873Z,47.60
2023-02-19T18:29:49.824Z,47.50
2023-02-19T18:32:16.552Z,47.60
2023-02-19T18:34:43.364Z,47.30
2023-02-19T18:37:10.159Z,47.10
2023-02-19T18:39:36.855Z,47.20
2023-02-19T18:42:03.723Z,47.10
2023-02-19T18:44:30.596Z,46.90
2023-02-19T18:46:57.476Z,47.10
2023-02-19T18:49:24.700Z,48.50
2023-02-19T18:51:51.573Z,48.60
2023-02-19T18:54:24.107Z,48.50
2023-02-19T18:56:51.388Z,48.60
2023-02-19T18:59:18.210Z,49.80
2023-02-19T19:01:45.094Z,49.10
2023-02-19T19:04:12.229Z,48.90
2023-02-19T19:06:39.057Z,49.10
2023-02-19T19:09:06.449Z,49.20
2023-02-19T19:11:33.262Z,48.90
2023-02-19T19:14:00.027Z,49.20
2023-02-19T19:16:28.757Z,49.30
2023-02-19T19:18:56.966Z,49.50
2023-02-19T19:21:23.880Z,49.80
2023-02-19T19:23:50.779Z,50.00
2023-02-19T19:26:17.645Z,50.20
2023-02-19T19:28:44.927Z,50.40
2023-02-19T19:31:13.655Z,50.80
2023-02-19T19:33:41.627Z,51.20
2023-02-19T19:36:10.052Z,51.50
2023-02-19T19:38:37.059Z,51.60
2023-02-19T19:41:04.777Z,51.70
2023-02-19T19:43:32.868Z,51.60
2023-02-19T19:46:00.312Z,51.80
2023-02-19T19:48:29.986Z,51.70
2023-02-19T19:50:59.638Z,51.90
2023-02-19T19:53:26.667Z,51.90
2023-02-19T19:55:53.798Z,52.40
2023-02-19T19:58:24.843Z,52.60
2023-02-19T20:00:52.458Z,53.10
2023-02-19T20:03:20.242Z,52.90
2023-02-19T20:05:50.301Z,52.60
2023-02-19T20:08:17.999Z,52.60
2023-02-19T20:10:45.495Z,52.70
2023-02-19T20:13:15.858Z,52.70
2023-02-19T20:15:42.617Z,52.60
2023-02-19T20:18:10.351Z,52.60
2023-02-19T20:20:37.100Z,52.60
2023-02-19T20:23:03.937Z,52.80
2023-02-19T20:25:30.909Z,53.20
2023-02-19T20:27:57.745Z,53.20
2023-02-19T20:30:25.367Z,53.50
2023-02-19T20:32:53.450Z,53.70
2023-02-19T20:35:20.644Z,54.00
2023-02-19T20:37:49.377Z,54.10
2023-02-19T20:40:17.881Z,53.90
2023-02-19T20:42:44.598Z,53.70
2023-02-19T20:45:11.429Z,53.50
2023-02-19T20:47:39.841Z,53.40
2023-02-19T20:50:07.454Z,53.30
2023-02-19T20:52:34.227Z,53.40
2023-02-19T20:55:01.376Z,53.20
2023-02-19T20:57:28.142Z,53.30
2023-02-19T20:59:54.924Z,53.10
2023-02-19T21:02:27.944Z,53.30
2023-02-19T21:04:56.603Z,53.00
2023-02-19T21:07:24.598Z,53.00
2023-02-19T21:09:52.091Z,52.80
2023-02-19T21:12:20.787Z,52.90
2023-02-19T21:14:47.663Z,52.50
2023-02-19T21:17:14.963Z,53.20
2023-02-19T21:19:41.750Z,52.40
2023-02-19T21:22:08.534Z,52.20
2023-02-19T21:24:35.510Z,52.40
2023-02-19T21:27:02.389Z,52.20
2023-02-19T21:29:29.244Z,52.50
2023-02-19T21:31:57.432Z,52.60
2023-02-19T21:34:26.779Z,53.10
2023-02-19T21:36:54.366Z,52.70
2023-02-19T21:39:23.230Z,52.50
2023-02-19T21:41:50.006Z,52.70
2023-02-19T21:44:17.401Z,52.50
2023-02-19T21:46:44.469Z,52.50
2023-02-19T21:49:11.991Z,52.50
2023-02-19T21:51:43.594Z,53.00
2023-02-19T21:54:15.806Z,53.10
2023-02-19T21:56:43.087Z,53.10
2023-02-19T21:59:10.001Z,52.70
2023-02-19T22:01:40.530Z,52.90
2023-02-19T22:04:08.950Z,53.10
2023-02-19T22:06:36.092Z,52.60
2023-02-19T22:09:03.819Z,52.50
2023-02-19T22:11:30.587Z,52.70
2023-02-19T22:13:57.697Z,52.50
2023-02-19T22:16:24.536Z,52.50
2023-02-19T22:18:54.159Z,52.50
2023-02-19T22:21:22.258Z,52.50
2023-02-19T22:23:51.449Z,52.20
2023-02-19T22:26:33.250Z,52.30
2023-02-19T22:29:02.667Z,53.10
2023-02-19T22:31:29.510Z,53.30
2023-02-19T22:33:57.431Z,52.50
2023-02-19T22:36:30.929Z,52.50
2023-02-19T22:38:58.157Z,52.50
2023-02-19T22:41:25.400Z,52.50
2023-02-19T22:43:55.602Z,52.70
2023-02-19T22:46:24.610Z,53.00
2023-02-19T22:48:51.428Z,52.70
2023-02-19T22:51:21.141Z,52.50
2023-02-19T22:53:50.207Z,53.10
2023-02-19T22:56:18.456Z,52.20
2023-02-19T22:58:45.266Z,52.20
2023-02-19T23:01:13.352Z,52.20
2023-02-19T23:03:57.626Z,52.10
2023-02-19T23:06:24.430Z,51.90
2023-02-19T23:08:51.808Z,51.80
2023-02-19T23:11:28.376Z,51.80
2023-02-19T23:13:55.258Z,52.00
2023-02-19T23:16:22.458Z,52.10
2023-02-19T23:18:49.617Z,51.70
2023-02-19T23:21:17.561Z,52.40
2023-02-19T23:23:45.779Z,52.40
2023-02-19T23:26:14.498Z,52.40
2023-02-19T23:28:42.770Z,52.20
2023-02-19T23:31:09.780Z,52.10
2023-02-19T23:33:36.601Z,51.80
2023-02-19T23:36:04.418Z,51.60
2023-02-19T23:38:31.469Z,51.80
2023-02-19T23:40:58.868Z,51.80
2023-02-19T23:43:25.611Z,51.90
2023-02-19T23:45:52.362Z,52.20
2023-02-19T23:48:19.216Z,52.40
2023-02-19T23:50:46.037Z,52.30
2023-02-19T23:53:12.839Z,52.10
2023-02-19T23:55:39.516Z,51.90
2023-02-19T23:58:06.332Z,51.70
